createdAt,value
2022-09-28T00:00:24.026Z,25.05
2022-09-28T00:02:51.236Z,25.06
2022-09-28T00:05:18.407Z,25.06
2022-09-28T00:07:45.488Z,25.03
2022-09-28T00:10:12.568Z,25.01
2022-09-28T00:12:41.002Z,24.99
2022-09-28T00:15:08.983Z,25.00
2022-09-28T00:17:36.058Z,24.95
2022-09-28T00:20:03.480Z,24.95
2022-09-28T00:22:30.709Z,24.93
2022-09-28T00:24:57.778Z,24.92
2022-09-28T00:27:24.887Z,24.92
2022-09-28T00:29:53.301Z,24.94
2022-09-28T00:32:20.464Z,24.96
2022-09-28T00:34:47.634Z,24.93
2022-09-28T00:37:15.277Z,24.99
2022-09-28T00:39:42.556Z,24.98
2022-09-28T00:42:13.432Z,24.95
2022-09-28T00:44:49.418Z,24.95
2022-09-28T00:47:39.786Z,24.98
2022-09-28T00:50:12.964Z,24.92
2022-09-28T00:52:44.004Z,24.93
2022-09-28T00:55:15.107Z,24.93
2022-09-28T00:57:48.358Z,24.92
2022-09-28T01:03:16.447Z,24.89
2022-09-28T01:05:44.797Z,24.88
2022-09-28T01:08:13.384Z,24.90
2022-09-28T01:10:41.083Z,24.90
2022-09-28T01:13:08.180Z,24.87
2022-09-28T01:15:43.282Z,24.84
2022-09-28T01:18:19.071Z,24.82
2022-09-28T01:20:56.756Z,24.85
2022-09-28T01:23:48.516Z,24.81
2022-09-28T01:26:41.693Z,24.84
2022-09-28T01:29:17.281Z,24.85
2022-09-28T01:31:49.149Z,24.86
2022-09-28T01:34:21.201Z,24.85
2022-09-28T01:36:52.071Z,24.88
2022-09-28T01:39:24.844Z,24.88
2022-09-28T01:41:57.118Z,24.90
2022-09-28T01:44:26.860Z,24.86
2022-09-28T01:46:54.020Z,24.86
2022-09-28T01:49:26.948Z,24.85
2022-09-28T01:51:57.618Z,24.83
2022-09-28T01:54:31.918Z,24.80
2022-09-28T01:57:06.760Z,24.84
2022-09-28T01:59:36.711Z,24.81
2022-09-28T02:02:10.147Z,24.77
2022-09-28T02:04:42.840Z,24.77
2022-09-28T02:07:13.918Z,24.72
2022-09-28T02:09:45.757Z,24.74
2022-09-28T02:12:20.018Z,24.72
2022-09-28T02:14:49.788Z,24.74
2022-09-28T02:17:16.899Z,24.73
2022-09-28T02:19:44.856Z,24.79
2022-09-28T02:22:23.566Z,24.84
2022-09-28T02:24:55.008Z,24.83
2022-09-28T02:27:33.884Z,24.78
2022-09-28T02:30:02.329Z,24.80
2022-09-28T02:32:32.216Z,24.80
2022-09-28T02:34:59.601Z,24.81
2022-09-28T02:37:27.350Z,24.79
2022-09-28T02:39:54.414Z,24.76
2022-09-28T02:42:29.246Z,24.79
2022-09-28T02:45:06.277Z,24.77
2022-09-28T02:47:47.694Z,24.77
2022-09-28T02:50:23.038Z,24.72
2022-09-28T02:53:17.234Z,24.75
2022-09-28T02:56:01.629Z,24.74
2022-09-28T02:58:35.427Z,24.70
2022-09-28T03:01:14.070Z,24.68
2022-09-28T03:03:48.428Z,24.67
2022-09-28T03:06:22.920Z,24.70
2022-09-28T03:08:57.188Z,24.69
2022-09-28T03:11:30.184Z,24.66
2022-09-28T03:13:59.583Z,24.64
2022-09-28T03:16:26.791Z,24.66
2022-09-28T03:18:53.928Z,24.70
2022-09-28T03:21:21.013Z,24.69
2022-09-28T03:23:48.087Z,24.69
2022-09-28T03:26:15.302Z,24.69
2022-09-28T03:28:42.701Z,24.69
2022-09-28T03:31:11.168Z,24.69
2022-09-28T03:33:38.299Z,24.66
2022-09-28T03:36:05.708Z,24.66
2022-09-28T03:38:32.791Z,24.65
2022-09-28T03:41:00.574Z,24.68
2022-09-28T03:43:29.874Z,24.66
2022-09-28T03:45:58.902Z,24.62
2022-09-28T03:48:32.391Z,24.62
2022-09-28T03:51:01.157Z,24.63
2022-09-28T03:53:28.709Z,24.63
2022-09-28T03:55:56.890Z,24.60
2022-09-28T03:58:24.048Z,24.56
2022-09-28T04:00:51.614Z,24.60
2022-09-28T04:03:18.753Z,24.59
2022-09-28T04:05:51.802Z,24.56
2022-09-28T04:08:18.994Z,24.62
2022-09-28T04:10:46.394Z,24.64
2022-09-28T04:13:13.937Z,24.62
2022-09-28T04:15:41.446Z,24.67
2022-09-28T04:18:09.720Z,24.71
2022-09-28T04:20:36.845Z,24.69
2022-09-28T04:23:05.258Z,24.68
2022-09-28T04:25:32.329Z,24.66
2022-09-28T04:27:59.416Z,24.68
2022-09-28T04:30:26.498Z,24.65
2022-09-28T04:32:53.573Z,24.64
2022-09-28T04:35:20.684Z,24.63
2022-09-28T04:37:47.827Z,24.63
2022-09-28T04:40:16.583Z,24.61
2022-09-28T04:42:43.725Z,24.62
2022-09-28T04:45:11.043Z,24.61
2022-09-28T04:47:38.118Z,24.60
2022-09-28T04:50:06.014Z,24.58
2022-09-28T04:52:36.033Z,24.59
2022-09-28T04:55:03.174Z,24.56
2022-09-28T04:57:34.140Z,24.56
2022-09-28T05:00:01.672Z,24.58
2022-09-28T05:02:28.773Z,24.58
2022-09-28T05:04:56.053Z,24.56
2022-09-28T05:07:23.157Z,24.60
2022-09-28T05:09:50.214Z,24.62
2022-09-28T05:12:17.424Z,24.58
2022-09-28T05:14:45.826Z,24.62
2022-09-28T05:17:12.950Z,24.60
2022-09-28T05:19:40.150Z,24.60
2022-09-28T05:22:07.264Z,24.62
2022-09-28T05:24:34.328Z,24.60
2022-09-28T05:27:01.404Z,24.61
2022-09-28T05:29:32.016Z,24.61
2022-09-28T05:32:01.335Z,24.60
2022-09-28T05:34:28.803Z,24.58
2022-09-28T05:36:55.954Z,24.59
2022-09-28T05:39:23.051Z,24.59
2022-09-28T05:41:50.155Z,24.56
2022-09-28T05:44:17.533Z,24.58
2022-09-28T05:46:44.708Z,24.55
2022-09-28T05:49:13.115Z,24.54
2022-09-28T05:51:40.173Z,24.53
2022-09-28T05:54:08.378Z,24.54
2022-09-28T05:56:35.458Z,24.53
2022-09-28T05:59:02.676Z,24.54
2022-09-28T06:01:29.830Z,24.55
2022-09-28T06:03:57.128Z,24.59
2022-09-28T06:06:25.549Z,24.60
2022-09-28T06:08:52.747Z,24.60
2022-09-28T06:11:19.841Z,24.61
2022-09-28T06:13:46.912Z,24.61
2022-09-28T06:16:15.653Z,24.59
2022-09-28T06:18:42.760Z,24.61
2022-09-28T06:21:09.872Z,24.60
2022-09-28T06:23:40.425Z,24.61
2022-09-28T06:26:07.877Z,24.60
2022-09-28T06:28:34.967Z,24.60
2022-09-28T06:31:02.227Z,24.58
2022-09-28T06:33:29.375Z,24.50
2022-09-28T06:35:58.722Z,24.53
2022-09-28T06:38:25.805Z,24.52
2022-09-28T06:40:54.283Z,24.50
2022-09-28T06:43:21.394Z,24.47
2022-09-28T06:45:52.324Z,24.48
2022-09-28T06:48:20.134Z,24.51
2022-09-28T06:50:47.244Z,24.52
2022-09-28T06:53:14.912Z,24.55
2022-09-28T06:55:44.187Z,24.56
2022-09-28T06:58:15.414Z,24.54
2022-09-28T07:00:43.265Z,24.55
2022-09-28T07:03:12.643Z,24.55
2022-09-28T07:05:42.607Z,24.57
2022-09-28T07:08:09.697Z,24.58
2022-09-28T07:10:42.097Z,24.57
2022-09-28T07:13:18.214Z,24.56
2022-09-28T07:15:58.611Z,24.56
2022-09-28T07:18:25.852Z,24.56
2022-09-28T07:20:54.667Z,24.56
2022-09-28T07:23:21.912Z,24.56
2022-09-28T07:25:49.184Z,24.55
2022-09-28T07:28:17.023Z,24.54
2022-09-28T07:30:44.328Z,24.55
2022-09-28T07:33:14.548Z,24.55
2022-09-28T07:35:42.109Z,24.53
2022-09-28T07:38:10.905Z,24.48
2022-09-28T07:40:38.137Z,24.50
2022-09-28T07:43:05.777Z,24.48
2022-09-28T07:45:33.009Z,24.52
2022-09-28T07:48:00.496Z,24.50
2022-09-28T07:50:29.129Z,24.56
2022-09-28T07:52:56.217Z,24.63
2022-09-28T07:55:23.440Z,24.65
2022-09-28T07:57:54.660Z,24.65
2022-09-28T08:00:21.853Z,24.66
2022-09-28T08:02:48.988Z,24.66
2022-09-28T08:05:16.189Z,24.63
2022-09-28T08:07:44.913Z,24.62
2022-09-28T08:10:12.040Z,24.65
2022-09-28T08:12:39.106Z,24.60
2022-09-28T08:15:07.725Z,24.62
2022-09-28T08:17:35.084Z,24.59
2022-09-28T08:20:02.261Z,24.62
2022-09-28T08:22:29.336Z,24.62
2022-09-28T08:24:57.932Z,24.59
2022-09-28T08:27:25.039Z,24.54
2022-09-28T08:29:52.094Z,24.59
2022-09-28T08:32:19.226Z,24.61
2022-09-28T08:34:46.309Z,24.57
2022-09-28T08:37:13.476Z,24.59
2022-09-28T08:39:40.556Z,24.60
2022-09-28T08:42:27.747Z,24.63
2022-09-28T08:44:58.637Z,24.62
2022-09-28T08:47:30.213Z,24.64
2022-09-28T08:49:57.902Z,24.55
2022-09-28T08:52:30.420Z,24.59
2022-09-28T08:55:03.487Z,24.58
2022-09-28T08:57:37.471Z,24.56
2022-09-28T09:00:10.893Z,24.61
2022-09-28T09:02:39.174Z,24.60
2022-09-28T09:05:10.832Z,24.60
2022-09-28T09:07:53.770Z,24.55
2022-09-28T09:10:47.471Z,24.55
2022-09-28T09:13:45.431Z,24.56
2022-09-28T09:16:24.471Z,24.54
2022-09-28T09:18:58.993Z,24.55
2022-09-28T09:21:39.166Z,24.56
2022-09-28T09:24:18.870Z,24.60
2022-09-28T09:26:46.241Z,24.58
2022-09-28T09:29:29.154Z,24.65
2022-09-28T09:32:09.204Z,24.68
2022-09-28T09:34:55.560Z,24.65
2022-09-28T09:37:41.870Z,24.63
2022-09-28T09:40:23.196Z,24.64
2022-09-28T09:43:04.855Z,24.64
2022-09-28T09:45:52.554Z,24.65
2022-09-28T09:48:25.036Z,24.64
2022-09-28T09:50:57.608Z,24.62
2022-09-28T09:53:33.666Z,24.60
2022-09-28T09:56:17.912Z,24.61
2022-09-28T09:58:51.751Z,24.61
2022-09-28T10:01:27.015Z,24.59
2022-09-28T10:03:55.956Z,24.56
2022-09-28T10:06:28.057Z,24.52
2022-09-28T10:09:03.321Z,24.57
2022-09-28T10:11:34.931Z,24.51
2022-09-28T10:14:02.238Z,24.62
2022-09-28T10:16:32.121Z,24.65
2022-09-28T10:19:00.208Z,24.67
2022-09-28T10:21:28.835Z,24.66
2022-09-28T10:23:58.508Z,24.68
2022-09-28T10:26:30.021Z,24.68
2022-09-28T10:29:01.166Z,24.72
2022-09-28T10:31:40.765Z,24.71
2022-09-28T10:34:11.029Z,24.78
2022-09-28T10:36:47.557Z,24.78
2022-09-28T10:39:31.261Z,24.79
2022-09-28T10:42:00.612Z,24.82
2022-09-28T10:44:28.174Z,24.85
2022-09-28T10:46:59.680Z,24.87
2022-09-28T10:49:27.553Z,24.86
2022-09-28T10:51:55.890Z,24.87
2022-09-28T10:54:25.336Z,24.89
2022-09-28T10:56:54.281Z,24.87
2022-09-28T10:59:41.341Z,24.93
2022-09-28T11:02:21.085Z,24.93
2022-09-28T11:04:53.246Z,24.88
2022-09-28T11:07:22.662Z,24.86
2022-09-28T11:09:50.944Z,24.88
2022-09-28T11:12:20.913Z,24.86
2022-09-28T11:14:49.706Z,24.87
2022-09-28T11:17:25.570Z,24.87
2022-09-28T11:19:53.291Z,24.89
2022-09-28T11:22:26.050Z,24.88
2022-09-28T11:25:13.997Z,24.87
2022-09-28T11:27:41.132Z,24.85
2022-09-28T11:30:22.716Z,24.86
2022-09-28T11:32:54.166Z,24.86
2022-09-28T11:35:26.067Z,24.83
2022-09-28T11:38:06.717Z,24.81
2022-09-28T11:40:54.282Z,24.79
2022-09-28T11:43:36.008Z,24.82
2022-09-28T11:46:13.941Z,24.80
2022-09-28T11:48:45.840Z,24.80
2022-09-28T11:51:19.357Z,24.80
2022-09-28T11:53:52.160Z,24.77
2022-09-28T11:56:33.831Z,24.77
2022-09-28T11:59:07.302Z,24.77
2022-09-28T12:01:38.782Z,24.77
2022-09-28T12:04:11.982Z,24.75
2022-09-28T12:06:42.469Z,24.75
2022-09-28T12:09:16.790Z,24.73
2022-09-28T12:11:48.960Z,24.72
2022-09-28T12:14:21.337Z,24.74
2022-09-28T12:17:10.639Z,24.80
2022-09-28T12:19:47.156Z,24.83
2022-09-28T12:22:20.983Z,24.86
2022-09-28T12:24:51.467Z,24.86
2022-09-28T12:27:25.903Z,24.85
2022-09-28T12:30:00.284Z,24.87
2022-09-28T12:32:33.660Z,24.85
2022-09-28T12:35:02.636Z,24.87
2022-09-28T12:37:54.567Z,24.88
2022-09-28T12:40:37.311Z,24.85
2022-09-28T12:43:23.508Z,24.89
2022-09-28T12:46:12.339Z,24.88
2022-09-28T12:49:47.223Z,24.86
2022-09-28T12:51:51.216Z,24.86
2022-09-28T12:54:42.649Z,24.90
2022-09-28T12:57:30.655Z,24.86
2022-09-28T13:00:03.304Z,24.81
2022-09-28T13:02:53.183Z,24.90
2022-09-28T13:05:38.529Z,24.93
2022-09-28T13:08:13.766Z,24.94
2022-09-28T13:10:48.410Z,24.99
2022-09-28T13:13:29.396Z,25.00
2022-09-28T13:16:02.995Z,25.02
2022-09-28T13:18:35.588Z,25.04
2022-09-28T13:21:22.255Z,25.02
2022-09-28T13:24:04.336Z,25.02
2022-09-28T13:26:40.467Z,25.02
2022-09-28T13:29:12.856Z,25.01
2022-09-28T13:31:45.655Z,24.99
2022-09-28T13:34:18.371Z,25.00
2022-09-28T13:36:48.195Z,24.97
2022-09-28T13:39:46.654Z,24.95
2022-09-28T13:42:24.735Z,24.95
2022-09-28T13:45:27.924Z,24.88
2022-09-28T13:48:14.482Z,24.88
2022-09-28T13:51:09.996Z,24.85
2022-09-28T13:53:52.408Z,24.83
2022-09-28T13:56:36.592Z,24.77
2022-09-28T13:59:14.339Z,24.79
2022-09-28T14:01:44.331Z,24.76
2022-09-28T14:04:16.215Z,24.74
2022-09-28T14:06:48.099Z,24.73
2022-09-28T14:09:39.418Z,24.71
2022-09-28T14:12:43.757Z,24.72
2022-09-28T14:15:46.855Z,24.73
2022-09-28T14:18:30.377Z,24.65
2022-09-28T14:21:13.744Z,24.66
2022-09-28T14:24:03.886Z,24.69
2022-09-28T14:26:57.701Z,24.72
2022-09-28T14:29:29.255Z,24.74
2022-09-28T14:31:57.721Z,24.70
2022-09-28T14:34:33.845Z,24.76
2022-09-28T14:37:03.180Z,24.72
2022-09-28T14:39:33.057Z,24.68
2022-09-28T14:42:08.875Z,24.70
2022-09-28T14:45:33.646Z,24.75
2022-09-28T14:48:18.402Z,24.71
2022-09-28T14:50:45.531Z,24.71
2022-09-28T14:53:17.801Z,24.67
2022-09-28T14:55:48.255Z,24.74
2022-09-28T14:58:19.075Z,24.77
2022-09-28T15:00:50.147Z,24.77
2022-09-28T15:03:18.060Z,24.80
2022-09-28T15:05:47.791Z,24.79
2022-09-28T15:08:15.578Z,24.83
2022-09-28T15:10:46.788Z,24.82
2022-09-28T15:13:20.117Z,24.82
2022-09-28T15:15:51.614Z,24.77
2022-09-28T15:19:09.435Z,24.61
2022-09-28T15:21:38.304Z,24.61
2022-09-28T15:24:27.278Z,24.48
2022-09-28T15:26:54.755Z,24.43
2022-09-28T15:29:22.116Z,24.43
2022-09-28T15:31:54.364Z,24.48
2022-09-28T15:34:29.842Z,24.50
2022-09-28T15:36:57.425Z,24.46
2022-09-28T15:39:29.950Z,24.46
2022-09-28T15:41:57.741Z,24.48
2022-09-28T15:44:29.814Z,24.54
2022-09-28T15:47:13.739Z,24.52
2022-09-28T15:49:45.160Z,24.54
2022-09-28T15:52:25.457Z,24.55
2022-09-28T15:54:53.119Z,24.53
2022-09-28T15:57:33.152Z,24.56
2022-09-28T16:00:00.932Z,24.55
2022-09-28T16:02:29.747Z,24.57
2022-09-28T16:04:58.139Z,24.53
2022-09-28T16:07:55.919Z,24.52
2022-09-28T16:10:32.520Z,24.53
2022-09-28T16:13:19.561Z,24.51
2022-09-28T16:15:53.360Z,24.52
2022-09-28T16:18:22.063Z,24.47
2022-09-28T16:20:51.936Z,24.43
2022-09-28T16:23:24.981Z,24.46
2022-09-28T16:25:56.601Z,24.45
2022-09-28T16:28:46.774Z,24.48
2022-09-28T16:31:25.439Z,24.45
2022-09-28T16:33:55.377Z,24.51
2022-09-28T16:36:22.914Z,24.47
2022-09-28T16:38:50.166Z,24.49
2022-09-28T16:41:21.040Z,24.50
2022-09-28T16:43:48.696Z,24.50
2022-09-28T16:46:17.308Z,24.51
2022-09-28T16:48:47.212Z,24.48
2022-09-28T16:51:15.852Z,24.50
2022-09-28T16:53:43.632Z,24.50
2022-09-28T16:56:12.440Z,24.48
2022-09-28T16:58:39.626Z,24.50
2022-09-28T17:01:06.843Z,24.47
2022-09-28T17:03:34.434Z,24.47
2022-09-28T17:06:03.293Z,24.43
2022-09-28T17:08:31.773Z,24.44
2022-09-28T17:11:14.824Z,24.40
2022-09-28T17:13:44.476Z,24.41
2022-09-28T17:16:15.022Z,24.42
2022-09-28T17:18:42.147Z,24.45
2022-09-28T17:21:11.990Z,24.46
2022-09-28T17:23:40.476Z,24.47
2022-09-28T17:26:08.369Z,24.47
2022-09-28T17:28:36.319Z,24.47
2022-09-28T17:31:04.517Z,24.53
2022-09-28T17:33:31.652Z,24.50
2022-09-28T17:36:01.143Z,24.50
2022-09-28T17:38:28.446Z,24.50
2022-09-28T17:40:56.914Z,24.50
2022-09-28T17:43:24.052Z,24.47
2022-09-28T17:45:51.430Z,24.48
2022-09-28T17:48:20.144Z,24.48
2022-09-28T17:50:47.663Z,24.50
2022-09-28T17:53:15.086Z,24.47
2022-09-28T17:55:42.204Z,24.44
2022-09-28T17:58:16.573Z,24.41
2022-09-28T18:00:43.781Z,24.40
2022-09-28T18:03:14.228Z,24.43
2022-09-28T18:05:42.356Z,24.43
2022-09-28T18:08:12.482Z,24.42
2022-09-28T18:10:39.610Z,24.41
2022-09-28T18:13:06.724Z,24.46
2022-09-28T18:15:35.665Z,24.43
2022-09-28T18:18:02.868Z,24.40
2022-09-28T18:20:30.948Z,24.42
2022-09-28T18:22:58.069Z,24.41
2022-09-28T18:25:25.176Z,24.41
2022-09-28T18:27:52.309Z,24.38
2022-09-28T18:30:19.440Z,24.42
2022-09-28T18:32:47.895Z,24.43
2022-09-28T18:35:17.449Z,24.41
2022-09-28T18:37:47.799Z,24.41
2022-09-28T18:40:15.031Z,24.40
2022-09-28T18:42:42.632Z,24.38
2022-09-28T18:45:11.054Z,24.36
2022-09-28T18:47:38.264Z,24.37
2022-09-28T18:50:07.832Z,24.33
2022-09-28T18:52:36.190Z,24.35
2022-09-28T18:55:03.562Z,24.33
2022-09-28T18:57:30.867Z,24.37
2022-09-28T18:59:57.951Z,24.35
2022-09-28T19:02:25.214Z,24.35
2022-09-28T19:04:52.858Z,24.31
2022-09-28T19:07:21.336Z,24.29
2022-09-28T19:09:48.454Z,24.33
2022-09-28T19:12:15.581Z,24.35
2022-09-28T19:14:42.716Z,24.32
2022-09-28T19:17:09.836Z,24.36
2022-09-28T19:19:37.009Z,24.36
2022-09-28T19:22:04.197Z,24.40
2022-09-28T19:24:32.856Z,24.46
2022-09-28T19:27:00.678Z,24.42
2022-09-28T19:29:27.784Z,24.46
2022-09-28T19:31:54.879Z,24.45
2022-09-28T19:34:22.035Z,24.42
2022-09-28T19:36:49.115Z,24.41
2022-09-28T19:39:16.303Z,24.39
2022-09-28T19:41:45.332Z,24.38
2022-09-28T19:44:15.753Z,24.36
2022-09-28T19:46:43.238Z,24.37
2022-09-28T19:49:12.559Z,24.37
2022-09-28T19:51:51.474Z,24.38
2022-09-28T19:54:27.260Z,24.39
2022-09-28T19:56:55.811Z,24.42
2022-09-28T19:59:22.957Z,24.43
2022-09-28T20:01:50.172Z,24.45
2022-09-28T20:04:17.457Z,24.45
2022-09-28T20:06:44.795Z,24.45
2022-09-28T20:09:12.031Z,24.44
2022-09-28T20:11:39.184Z,24.44
2022-09-28T20:14:09.807Z,24.41
2022-09-28T20:16:37.072Z,24.40
2022-09-28T20:19:04.284Z,24.41
2022-09-28T20:21:31.393Z,24.35
2022-09-28T20:23:58.494Z,24.35
2022-09-28T20:26:26.941Z,24.36
2022-09-28T20:28:54.593Z,24.35
2022-09-28T20:31:24.949Z,24.34
2022-09-28T20:33:52.457Z,24.36
2022-09-28T20:36:21.227Z,24.30
2022-09-28T20:38:49.281Z,24.35
2022-09-28T20:41:17.953Z,24.35
2022-09-28T20:43:46.324Z,24.36
2022-09-28T20:46:14.329Z,24.33
2022-09-28T20:48:43.165Z,24.36
2022-09-28T20:51:12.666Z,24.37
2022-09-28T20:53:41.566Z,24.34
2022-09-28T20:56:12.829Z,24.37
2022-09-28T20:58:41.443Z,24.33
2022-09-28T21:01:14.551Z,24.34
2022-09-28T21:03:45.745Z,24.31
2022-09-28T21:06:12.866Z,24.31
2022-09-28T21:08:40.012Z,24.32
2022-09-28T21:11:07.157Z,24.27
2022-09-28T21:13:34.263Z,24.29
2022-09-28T21:16:02.927Z,24.24
2022-09-28T21:18:30.212Z,24.23
2022-09-28T21:20:58.716Z,24.23
2022-09-28T21:23:25.822Z,24.27
2022-09-28T21:26:03.137Z,24.32
2022-09-28T21:28:30.260Z,24.31
2022-09-28T21:30:57.676Z,24.32
2022-09-28T21:33:24.851Z,24.27
2022-09-28T21:35:51.948Z,24.28
2022-09-28T21:38:20.427Z,24.30
2022-09-28T21:40:47.583Z,24.30
2022-09-28T21:43:15.082Z,24.26
2022-09-28T21:45:42.169Z,24.28
2022-09-28T21:48:09.409Z,24.27
2022-09-28T21:50:36.517Z,24.28
2022-09-28T21:53:03.678Z,24.24
2022-09-28T21:55:32.174Z,24.27
2022-09-28T21:57:59.291Z,24.23
2022-09-28T22:00:26.416Z,24.22
2022-09-28T22:02:53.587Z,24.28
2022-09-28T22:05:20.736Z,24.23
2022-09-28T22:07:47.856Z,24.21
2022-09-28T22:10:15.194Z,24.21
2022-09-28T22:12:43.810Z,24.18
2022-09-28T22:15:10.984Z,24.15
2022-09-28T22:17:38.091Z,24.21
2022-09-28T22:20:06.332Z,24.20
2022-09-28T22:22:33.440Z,24.21
2022-09-28T22:25:00.543Z,24.20
2022-09-28T22:27:29.859Z,24.18
2022-09-28T22:29:58.405Z,24.23
2022-09-28T22:32:25.591Z,24.25
2022-09-28T22:34:52.894Z,24.25
2022-09-28T22:37:20.013Z,24.23
2022-09-28T22:39:47.128Z,24.22
2022-09-28T22:42:14.388Z,24.22
2022-09-28T22:44:41.505Z,24.16
2022-09-28T22:47:09.929Z,24.19
2022-09-28T22:49:37.167Z,24.18
2022-09-28T22:52:04.293Z,24.20
2022-09-28T22:54:31.485Z,24.15
2022-09-28T22:56:58.813Z,24.14
2022-09-28T22:59:25.887Z,24.14
2022-09-28T23:01:53.053Z,24.14
2022-09-28T23:04:21.675Z,24.16
2022-09-28T23:06:48.778Z,24.18
2022-09-28T23:09:15.873Z,24.16
2022-09-28T23:11:43.191Z,24.15
2022-09-28T23:14:11.263Z,24.18
2022-09-28T23:16:38.346Z,24.16
2022-09-28T23:19:05.684Z,24.14
2022-09-28T23:21:34.212Z,24.15
2022-09-28T23:24:01.807Z,24.15
2022-09-28T23:26:31.087Z,24.13
2022-09-28T23:28:58.939Z,24.13
2022-09-28T23:31:28.107Z,24.18
2022-09-28T23:33:59.456Z,24.15
2022-09-28T23:36:27.154Z,24.11
2022-09-28T23:38:55.884Z,24.09
2022-09-28T23:41:23.022Z,24.07
2022-09-28T23:43:50.113Z,24.12
2022-09-28T23:46:20.759Z,24.08
2022-09-28T23:48:48.465Z,24.10
2022-09-28T23:51:15.560Z,24.11
2022-09-28T23:53:42.702Z,24.10
2022-09-28T23:56:11.424Z,24.11
2022-09-28T23:58:38.577Z,24.11
